Key Field
KMEI : now visible

Airfield :











YOU CAN JOIN US ON...

 
LOGIN :

Register | Disclaimer

   EN    FR    IT 

 









Legend :    VFR   Marginal VFR   IFR   Intensive IFR   Very Intensive IFR
Visi :
Ceiling :
>= 8 km
>= 3000ft
5 to 8 km
1000 to 3000 ft
1500m to 5 km
500 to 1000 ft
800 to 1500m
200 to 500 ft
< 800m
< 200 ft
Symbols :   Thunderstorms  Fog  Heavy snow  Heavy precipitations  Wind > 20 kt






- Airport Elevation : 297 ft
- IATA code : MEI


KMEI - Key Field

CURRENT METAR :
  • 280558Z AUTO 00000KT 1/4SM R01/1400V3500FT FG OVC001 04/03 A3004 RMK AO2 SLP171 I1000 I6/// T00390028 10100 20039 401670039 58002 $

EXPIRED METARs :
  • 280540Z AUTO 00000KT 1/2SM R01/1400V4000FT FG OVC001 04/03 A3004 RMK AO2 I1000 T00390028 $
  • 280512Z AUTO 20003KT 1/2SM R01/1400V1600FT FG VV002 04/03 A3004 RMK AO2 I1000 T00390028 $
  • 280443Z AUTO 00000KT 1/2SM R01/1400V1600FT FG VV002 04/03 A3004 RMK AO2 I1000 T00440033 $
  • 280429Z AUTO 00000KT 1/4SM R01/1600V2200FT FG VV003 04/03 A3004 RMK AO2 I1000 T00440033 $
  • 280418Z AUTO 00000KT 1/2SM R01/1800V4500FT FG VV003 05/03 A3004 RMK AO2 I1000 T00500033 $
  • 280408Z AUTO 00000KT 1/4SM R01/1600V5500FT FG VV003 05/04 A3004 RMK AO2 I1000 T00500039 $
  • 280347Z 00000KT 3SM R01/1600V2400FT BR VV002 05/04 A3004 RMK AO2 I1000 T00500039 $
  • 280344Z 00000KT 1SM R01/1400V2400FT BR VV002 05/04 A3004 RMK AO2 I1000 T00500039 $
  • 280316Z 00000KT 3/4SM R01/1600V5000FT BR VV002 06/04 A3004 RMK AO2 I1000 T00560044

TAF KMEI
Valid from the 28 at 04:00 until the 29 at 00:00 UTC


280400Z 2804/2824 02006KT 3SM BR OVC005
TEMPO 2804/2808 1/4SM FG OVC002
FM280900 00000KT 5SM BR OVC007
FM281400 10005KT P6SM OVC250



MET'MAP, your aeronautical weather chart ! - Copyright ORBIFLY December 2007 - Disclaimer

ORBIFLY MET'MAP TEAM :

Programming & Development : Alexandra Zaïnal
Concept & original design : Baudouin d'Aumeries
Assistance for programming : Marc-Olivier Méhu
Technical & hardware support : Manuel Goepfert

Contact : metmap@orbifly.com




SOURCES & CREDITS :

   NOAA       Earth
Advisory